createdAt,value
2022-09-04T00:01:57.350Z,16.20
2022-09-04T00:04:53.187Z,16.20
2022-09-04T00:08:05.464Z,16.20
2022-09-04T00:11:01.202Z,16.10
2022-09-04T00:13:57.475Z,16.10
2022-09-04T00:16:51.168Z,16.10
2022-09-04T00:19:43.349Z,16.00
2022-09-04T00:22:34.999Z,16.10
2022-09-04T00:25:27.091Z,16.00
2022-09-04T00:28:20.968Z,16.00
2022-09-04T00:31:19.234Z,16.00
2022-09-04T00:34:18.792Z,16.00
2022-09-04T00:37:08.001Z,16.00
2022-09-04T00:39:59.642Z,15.90
2022-09-04T00:43:22.082Z,15.90
2022-09-04T00:46:37.421Z,15.80
2022-09-04T00:49:38.361Z,15.80
2022-09-04T00:52:44.583Z,15.80
2022-09-04T00:55:52.561Z,15.80
2022-09-04T00:58:54.156Z,15.80
2022-09-04T01:01:41.966Z,15.80
2022-09-04T01:04:37.383Z,15.80
2022-09-04T01:07:37.216Z,15.60
2022-09-04T01:10:41.747Z,15.70
2022-09-04T01:13:37.446Z,15.70
2022-09-04T01:16:32.235Z,15.70
2022-09-04T01:19:38.689Z,15.60
2022-09-04T01:22:41.338Z,15.60
2022-09-04T01:25:47.822Z,15.60
2022-09-04T01:28:43.710Z,15.60
2022-09-04T01:31:38.644Z,15.50
2022-09-04T01:34:39.560Z,15.50
2022-09-04T01:37:42.325Z,15.40
2022-09-04T01:40:37.736Z,15.40
2022-09-04T01:43:26.381Z,15.40
2022-09-04T01:46:28.782Z,15.40
2022-09-04T01:49:25.882Z,15.30
2022-09-04T01:52:36.431Z,15.30
2022-09-04T01:55:31.413Z,15.20
2022-09-04T01:58:25.562Z,15.20
2022-09-04T02:01:23.379Z,15.20
2022-09-04T02:04:18.630Z,15.20
2022-09-04T02:07:16.090Z,15.10
2022-09-04T02:10:13.361Z,15.10
2022-09-04T02:13:14.970Z,15.10
2022-09-04T02:16:14.474Z,15.10
2022-09-04T02:19:12.001Z,15.00
2022-09-04T02:22:07.775Z,15.00
2022-09-04T02:25:01.895Z,15.00
2022-09-04T02:27:55.347Z,15.00
2022-09-04T02:30:51.057Z,14.90
2022-09-04T02:33:47.414Z,14.90
2022-09-04T02:36:43.963Z,14.90
2022-09-04T02:39:41.818Z,14.90
2022-09-04T02:42:39.833Z,14.90
2022-09-04T02:45:35.462Z,14.90
2022-09-04T02:48:35.173Z,14.90
2022-09-04T02:51:38.640Z,15.00
2022-09-04T02:54:44.888Z,14.90
2022-09-04T02:57:47.752Z,14.90
2022-09-04T03:00:45.199Z,14.80
2022-09-04T03:03:38.523Z,14.80
2022-09-04T03:06:41.650Z,14.80
2022-09-04T03:09:37.443Z,14.80
2022-09-04T03:12:38.215Z,14.90
2022-09-04T03:15:30.309Z,14.80
2022-09-04T03:18:24.163Z,14.80
2022-09-04T03:21:16.508Z,14.80
2022-09-04T03:24:09.113Z,14.80
2022-09-04T03:27:02.575Z,14.80
2022-09-04T03:29:56.521Z,14.70
2022-09-04T03:32:49.534Z,14.70
2022-09-04T03:35:41.939Z,14.70
2022-09-04T03:38:35.542Z,14.70
2022-09-04T03:41:32.914Z,14.70
2022-09-04T03:44:32.740Z,14.70
2022-09-04T03:47:27.973Z,14.80
2022-09-04T03:50:25.180Z,14.80
2022-09-04T03:53:23.067Z,14.70
2022-09-04T03:56:31.541Z,14.70
2022-09-04T03:59:38.071Z,14.60
2022-09-04T04:02:37.939Z,14.60
2022-09-04T04:05:38.728Z,14.60
2022-09-04T04:09:05.139Z,14.60
2022-09-04T04:12:15.951Z,14.60
2022-09-04T04:15:14.669Z,14.60
2022-09-04T04:18:37.805Z,14.50
2022-09-04T04:21:36.416Z,14.50
2022-09-04T04:24:39.236Z,14.50
2022-09-04T04:27:47.485Z,14.40
2022-09-04T04:30:48.058Z,14.40
2022-09-04T04:33:45.136Z,14.30
2022-09-04T04:36:40.101Z,14.30
2022-09-04T04:39:35.852Z,14.20
2022-09-04T04:42:29.966Z,14.20
2022-09-04T04:45:42.419Z,14.10
2022-09-04T04:49:05.291Z,14.00
2022-09-04T04:52:18.393Z,14.00
2022-09-04T04:55:14.949Z,14.00
2022-09-04T04:58:42.076Z,14.00
2022-09-04T05:01:42.362Z,14.00
2022-09-04T05:04:40.935Z,14.00
2022-09-04T05:07:36.104Z,14.10
2022-09-04T05:10:30.224Z,14.00
2022-09-04T05:13:24.173Z,13.90
2022-09-04T05:16:26.528Z,14.00
2022-09-04T05:19:23.826Z,14.00
2022-09-04T05:22:19.815Z,14.00
2022-09-04T05:25:11.522Z,14.00
2022-09-04T05:28:06.184Z,14.10
2022-09-04T05:31:03.458Z,14.10
2022-09-04T05:34:00.225Z,14.20
2022-09-04T05:36:59.541Z,14.20
2022-09-04T05:40:01.563Z,14.20
2022-09-04T05:43:03.470Z,14.20
2022-09-04T05:46:01.670Z,14.30
2022-09-04T05:49:00.148Z,14.40
2022-09-04T05:52:07.073Z,14.40
2022-09-04T05:55:32.796Z,14.50
2022-09-04T05:58:34.779Z,14.60
2022-09-04T06:01:39.210Z,14.90
2022-09-04T06:04:56.499Z,14.90
2022-09-04T06:07:52.962Z,15.00
2022-09-04T06:10:53.798Z,15.00
2022-09-04T06:13:56.159Z,14.90
2022-09-04T06:16:59.190Z,14.90
2022-09-04T06:20:08.410Z,14.90
2022-09-04T06:23:10.275Z,15.10
2022-09-04T06:26:28.599Z,15.50
2022-09-04T06:29:45.420Z,16.00
2022-09-04T06:32:50.643Z,16.40
2022-09-04T06:36:00.274Z,16.60
2022-09-04T06:39:05.123Z,16.90
2022-09-04T06:42:14.448Z,16.80
2022-09-04T06:45:20.537Z,17.10
2022-09-04T06:48:19.468Z,17.40
2022-09-04T06:51:23.932Z,17.70
2022-09-04T06:54:20.739Z,17.90
2022-09-04T06:57:42.963Z,18.20
2022-09-04T07:00:34.856Z,18.60
2022-09-04T07:03:35.435Z,18.60
2022-09-04T07:06:29.866Z,18.80
2022-09-04T07:09:20.519Z,18.90
2022-09-04T07:12:36.286Z,19.00
2022-09-04T07:15:47.960Z,19.00
2022-09-04T07:19:07.896Z,19.30
2022-09-04T07:22:17.894Z,19.50
2022-09-04T07:25:18.910Z,19.60
2022-09-04T07:28:24.003Z,19.70
2022-09-04T07:31:17.180Z,20.10
2022-09-04T07:34:15.363Z,20.00
2022-09-04T07:37:10.008Z,20.30
2022-09-04T07:40:08.170Z,20.30
2022-09-04T07:43:05.888Z,20.30
2022-09-04T07:46:04.179Z,20.50
2022-09-04T07:48:57.590Z,20.40
2022-09-04T07:51:52.932Z,20.30
2022-09-04T07:55:18.008Z,20.20
2022-09-04T07:58:38.745Z,20.30
2022-09-04T08:01:52.077Z,20.80
2022-09-04T08:05:03.091Z,21.20
2022-09-04T08:08:28.279Z,21.50
2022-09-04T08:12:15.010Z,21.40
2022-09-04T08:15:15.760Z,21.10
2022-09-04T08:18:21.296Z,21.50
2022-09-04T08:21:18.739Z,21.80
2022-09-04T08:24:37.122Z,21.40
2022-09-04T08:27:42.939Z,21.60
2022-09-04T08:30:40.847Z,21.50
2022-09-04T08:33:52.047Z,21.30
2022-09-04T08:36:52.489Z,21.70
2022-09-04T08:39:48.544Z,21.80
2022-09-04T08:43:14.240Z,21.80
2022-09-04T08:46:27.032Z,22.40
2022-09-04T08:49:49.709Z,22.40
2022-09-04T08:53:12.206Z,21.80
2022-09-04T08:56:18.475Z,21.90
2022-09-04T08:59:40.359Z,22.00
2022-09-04T09:03:03.130Z,21.80
2022-09-04T09:06:33.053Z,22.30
2022-09-04T09:10:05.477Z,22.50
2022-09-04T09:13:23.277Z,21.90
2022-09-04T09:16:21.657Z,22.40
2022-09-04T09:19:39.640Z,22.70
2022-09-04T09:23:26.023Z,22.70
2022-09-04T09:26:27.708Z,23.10
2022-09-04T09:29:49.761Z,23.10
2022-09-04T09:33:24.903Z,23.30
2022-09-04T09:37:02.767Z,23.40
2022-09-04T09:40:16.477Z,23.80
2022-09-04T09:43:30.775Z,23.80
2022-09-04T09:46:53.239Z,23.60
2022-09-04T09:50:04.297Z,23.50
2022-09-04T09:53:20.011Z,23.30
2022-09-04T09:56:46.695Z,23.80
2022-09-04T10:00:08.354Z,23.60
2022-09-04T10:03:33.409Z,23.80
2022-09-04T10:07:00.281Z,23.40
2022-09-04T10:10:10.533Z,23.30
2022-09-04T10:13:28.944Z,23.60
2022-09-04T10:16:52.973Z,23.70
2022-09-04T10:20:05.973Z,23.80
2022-09-04T10:23:22.880Z,23.70
2022-09-04T10:26:41.185Z,24.00
2022-09-04T10:29:49.514Z,23.80
2022-09-04T10:33:21.177Z,23.70
2022-09-04T10:36:25.676Z,23.70
2022-09-04T10:39:41.449Z,23.70
2022-09-04T10:42:41.041Z,23.30
2022-09-04T10:45:34.879Z,23.60
2022-09-04T10:48:37.154Z,23.50
2022-09-04T10:52:21.783Z,23.40
2022-09-04T10:55:27.237Z,23.30
2022-09-04T10:58:29.885Z,23.40
2022-09-04T11:01:43.911Z,23.40
2022-09-04T11:05:00.966Z,23.40
2022-09-04T11:08:18.992Z,23.40
2022-09-04T11:11:22.196Z,23.60
2022-09-04T11:14:29.294Z,23.90
2022-09-04T11:17:41.734Z,23.80
2022-09-04T11:21:05.808Z,23.60
2022-09-04T11:24:44.534Z,23.70
2022-09-04T11:28:02.670Z,23.40
2022-09-04T11:31:03.854Z,23.60
2022-09-04T11:34:42.285Z,23.60
2022-09-04T11:38:04.954Z,23.60
2022-09-04T11:41:28.954Z,23.50
2022-09-04T11:44:36.181Z,23.70
2022-09-04T11:47:53.963Z,23.70
2022-09-04T11:50:57.252Z,23.80
2022-09-04T11:54:05.819Z,23.90
2022-09-04T11:57:10.378Z,23.90
2022-09-04T12:00:11.678Z,23.90
2022-09-04T12:03:32.416Z,23.80
2022-09-04T12:06:37.345Z,23.80
2022-09-04T12:09:51.305Z,23.80
2022-09-04T12:13:25.515Z,24.10
2022-09-04T12:16:42.773Z,23.90
2022-09-04T12:20:05.076Z,24.00
2022-09-04T12:23:25.560Z,24.00
2022-09-04T12:26:51.917Z,23.80
2022-09-04T12:30:05.152Z,23.80
2022-09-04T12:33:11.957Z,23.80
2022-09-04T12:36:34.497Z,23.70
2022-09-04T12:40:12.457Z,23.70
2022-09-04T12:43:16.289Z,23.60
2022-09-04T12:46:16.708Z,23.80
2022-09-04T12:49:19.346Z,23.80
2022-09-04T12:52:19.144Z,23.90
2022-09-04T12:55:14.606Z,23.90
2022-09-04T12:58:13.454Z,24.00
2022-09-04T13:01:10.875Z,23.90
2022-09-04T13:04:06.931Z,24.00
2022-09-04T13:07:15.930Z,24.00
2022-09-04T13:10:17.000Z,24.10
2022-09-04T13:13:16.590Z,24.00
2022-09-04T13:16:12.958Z,23.90
2022-09-04T13:19:11.738Z,24.10
2022-09-04T13:22:14.797Z,24.10
2022-09-04T13:25:12.718Z,23.90
2022-09-04T13:28:18.937Z,24.10
2022-09-04T13:31:28.757Z,23.90
2022-09-04T13:34:24.725Z,24.00
2022-09-04T13:37:23.797Z,24.10
2022-09-04T13:40:24.927Z,24.00
2022-09-04T13:43:41.464Z,24.00
2022-09-04T13:46:33.663Z,24.10
2022-09-04T13:49:27.266Z,24.10
2022-09-04T13:52:19.378Z,24.10
2022-09-04T13:55:10.826Z,24.10
2022-09-04T13:58:10.425Z,24.00
2022-09-04T14:01:01.237Z,24.00
2022-09-04T14:03:51.313Z,23.90
2022-09-04T14:06:38.927Z,23.80
2022-09-04T14:09:25.937Z,23.80
2022-09-04T14:12:37.171Z,23.80
2022-09-04T14:15:38.291Z,23.80
2022-09-04T14:18:45.643Z,23.80
2022-09-04T14:21:44.034Z,23.80
2022-09-04T14:24:42.054Z,23.80
2022-09-04T14:27:39.942Z,23.80
2022-09-04T14:30:27.423Z,23.70
2022-09-04T14:33:25.111Z,23.70
2022-09-04T14:36:35.469Z,23.70
2022-09-04T14:39:29.018Z,23.60
2022-09-04T14:42:28.473Z,23.70
2022-09-04T14:45:32.586Z,23.80
2022-09-04T14:48:24.243Z,23.80
2022-09-04T14:51:16.910Z,23.90
2022-09-04T14:54:06.465Z,24.00
2022-09-04T14:56:57.943Z,24.00
2022-09-04T14:59:52.354Z,24.10
2022-09-04T15:02:44.519Z,24.10
2022-09-04T15:05:35.492Z,24.00
2022-09-04T15:08:29.348Z,23.90
2022-09-04T15:11:31.920Z,23.60
2022-09-04T15:14:28.374Z,23.50
2022-09-04T15:17:26.314Z,23.50
2022-09-04T15:20:22.008Z,23.50
2022-09-04T15:23:19.880Z,23.60
2022-09-04T15:26:12.425Z,23.60
2022-09-04T15:29:09.421Z,23.60
2022-09-04T15:32:01.821Z,23.60
2022-09-04T15:34:50.137Z,23.60
2022-09-04T15:37:37.783Z,23.60
2022-09-04T15:40:31.079Z,23.50
2022-09-04T15:43:24.737Z,23.50
2022-09-04T15:46:23.926Z,23.40
2022-09-04T15:49:27.844Z,23.40
2022-09-04T15:52:31.683Z,23.40
2022-09-04T15:55:25.510Z,23.40
2022-09-04T15:58:16.970Z,23.40
2022-09-04T16:01:25.974Z,23.10
2022-09-04T16:04:23.245Z,23.30
2022-09-04T16:07:34.143Z,23.30
2022-09-04T16:10:25.873Z,23.30
2022-09-04T16:13:34.730Z,23.20
2022-09-04T16:16:27.807Z,23.20
2022-09-04T16:19:25.734Z,23.20
2022-09-04T16:22:24.355Z,23.10
2022-09-04T16:25:23.817Z,23.10
2022-09-04T16:28:25.331Z,23.00
2022-09-04T16:31:14.346Z,23.00
2022-09-04T16:34:08.781Z,23.00
2022-09-04T16:37:01.947Z,23.00
2022-09-04T16:40:00.087Z,22.90
2022-09-04T16:42:51.959Z,22.90
2022-09-04T16:45:44.488Z,22.90
2022-09-04T16:48:36.722Z,22.90
2022-09-04T16:51:41.234Z,22.80
2022-09-04T16:54:35.391Z,22.80
2022-09-04T16:57:29.457Z,22.70
2022-09-04T17:00:17.643Z,22.70
2022-09-04T17:03:19.023Z,22.60
2022-09-04T17:06:18.726Z,22.50
2022-09-04T17:09:21.363Z,22.50
2022-09-04T17:12:22.433Z,22.40
2022-09-04T17:15:18.330Z,22.30
2022-09-04T17:18:08.229Z,22.20
2022-09-04T17:25:24.390Z,22.20
2022-09-04T17:29:12.479Z,22.10
2022-09-04T17:29:22.449Z,22.20
2022-09-04T17:30:42.841Z,22.00
2022-09-04T17:39:15.547Z,21.70
2022-09-04T17:40:51.159Z,21.60
2022-09-04T17:40:54.445Z,21.50
2022-09-04T17:43:27.583Z,21.50
2022-09-04T17:46:26.531Z,21.30
2022-09-04T17:49:20.422Z,21.30
2022-09-04T17:52:09.014Z,21.20
2022-09-04T17:55:02.753Z,21.00
2022-09-04T17:57:59.440Z,20.90
2022-09-04T18:01:14.241Z,20.70
2022-09-04T18:04:23.691Z,20.60
2022-09-04T18:07:29.930Z,20.50
2022-09-04T18:10:32.453Z,20.30
2022-09-04T18:13:38.126Z,20.10
2022-09-04T18:17:12.681Z,20.00
2022-09-04T18:20:11.133Z,19.80
2022-09-04T18:23:17.756Z,19.70
2022-09-04T18:26:15.387Z,19.70
2022-09-04T18:30:18.750Z,19.70
2022-09-04T18:37:09.420Z,19.70
2022-09-04T18:37:19.634Z,19.60
2022-09-04T18:39:14.207Z,19.50
2022-09-04T18:50:20.882Z,19.60
2022-09-04T18:50:21.514Z,19.60
2022-09-04T18:50:34.462Z,19.70
2022-09-04T18:51:52.041Z,19.70
2022-09-04T18:54:42.276Z,19.70
2022-09-04T18:57:33.861Z,19.70
2022-09-04T19:00:30.635Z,19.70
2022-09-04T19:03:23.145Z,19.70
2022-09-04T19:06:14.007Z,19.70
2022-09-04T19:09:09.997Z,19.60
2022-09-04T19:12:02.587Z,19.60
2022-09-04T19:14:54.136Z,19.50
2022-09-04T19:17:46.918Z,19.50
2022-09-04T19:20:46.484Z,19.40
2022-09-04T19:23:38.232Z,19.30
2022-09-04T19:26:32.342Z,19.30
2022-09-04T19:29:24.116Z,19.30
2022-09-04T19:32:15.819Z,19.30
2022-09-04T19:35:15.404Z,19.30
2022-09-04T19:42:26.911Z,19.30
2022-09-04T19:45:59.467Z,19.30
2022-09-04T19:46:19.270Z,19.20
2022-09-04T19:47:51.400Z,19.20
2022-09-04T19:53:33.441Z,19.10
2022-09-04T19:53:58.405Z,19.00
2022-09-04T19:57:31.108Z,19.00
2022-09-04T20:00:42.847Z,19.00
2022-09-04T20:03:30.211Z,19.00
2022-09-04T20:06:23.038Z,18.90
2022-09-04T20:09:17.106Z,18.80
2022-09-04T20:12:13.757Z,18.80
2022-09-04T20:15:11.629Z,18.70
2022-09-04T20:18:12.345Z,18.60
2022-09-04T20:21:08.003Z,18.60
2022-09-04T20:24:02.994Z,18.60
2022-09-04T20:26:56.134Z,18.60
2022-09-04T20:29:52.396Z,18.50
2022-09-04T20:32:55.997Z,18.50
2022-09-04T20:35:49.546Z,18.50
2022-09-04T20:38:46.398Z,18.40
2022-09-04T20:41:46.007Z,18.40
2022-09-04T20:44:57.873Z,18.40
2022-09-04T20:52:50.157Z,18.30
2022-09-04T20:52:54.578Z,18.20
2022-09-04T20:54:44.290Z,18.10
2022-09-04T21:02:26.940Z,18.10
2022-09-04T21:03:22.692Z,18.00
2022-09-04T21:04:25.013Z,17.90
2022-09-04T21:07:34.630Z,17.90
2022-09-04T21:10:29.237Z,17.90
2022-09-04T21:13:23.775Z,17.70
2022-09-04T21:16:24.559Z,17.60
2022-09-04T21:19:49.060Z,17.60
2022-09-04T21:22:50.807Z,17.60
2022-09-04T21:25:51.361Z,17.60
2022-09-04T21:29:11.340Z,17.60
2022-09-04T21:32:19.564Z,17.50
2022-09-04T21:35:14.101Z,17.50
2022-09-04T21:38:12.622Z,17.40
2022-09-04T21:41:22.216Z,17.40
2022-09-04T21:44:34.287Z,17.40
2022-09-04T21:47:33.612Z,17.30
2022-09-04T21:50:50.385Z,17.30
2022-09-04T21:54:08.639Z,17.30
2022-09-04T22:02:30.673Z,17.10
2022-09-04T22:02:42.825Z,17.10
2022-09-04T22:04:49.873Z,17.00
2022-09-04T22:12:58.720Z,17.00
2022-09-04T22:13:32.999Z,16.90
2022-09-04T22:14:26.032Z,16.90
2022-09-04T22:17:30.544Z,16.70
2022-09-04T22:20:24.454Z,16.70
2022-09-04T22:23:50.895Z,16.70
2022-09-04T22:26:53.550Z,16.70
2022-09-04T22:29:50.950Z,16.70
2022-09-04T22:33:13.226Z,16.70
2022-09-04T22:36:28.091Z,16.60
2022-09-04T22:39:37.872Z,16.60
2022-09-04T22:42:47.498Z,16.60
2022-09-04T22:46:04.045Z,16.60
2022-09-04T22:49:24.827Z,16.50
2022-09-04T22:52:35.733Z,16.40
2022-09-04T22:55:40.609Z,16.40
2022-09-04T22:59:27.110Z,16.50
2022-09-04T23:02:55.430Z,16.50
2022-09-04T23:06:54.413Z,16.40
2022-09-04T23:13:46.602Z,16.40
2022-09-04T23:13:52.840Z,16.30
2022-09-04T23:16:40.311Z,16.30
2022-09-04T23:26:35.288Z,16.30
2022-09-04T23:26:44.478Z,16.20
2022-09-04T23:27:28.737Z,16.30
2022-09-04T23:30:25.211Z,16.30
2022-09-04T23:33:49.376Z,16.20
2022-09-04T23:36:49.827Z,16.20
2022-09-04T23:40:06.193Z,16.20
2022-09-04T23:43:27.236Z,16.20
2022-09-04T23:46:31.067Z,16.10
2022-09-04T23:49:41.488Z,16.10
2022-09-04T23:52:49.135Z,16.10
2022-09-04T23:56:04.358Z,16.10
2022-09-04T23:59:22.745Z,16.00
